createdAt,value
2023-11-18T00:01:38.563Z,12.95
2023-11-18T00:06:41.582Z,13.93
2023-11-18T00:11:44.374Z,10.43
2023-11-18T00:16:47.612Z,10.77
2023-11-18T00:21:50.610Z,10.25
2023-11-18T00:26:54.192Z,10.73
2023-11-18T00:31:56.981Z,13.07
2023-11-18T00:36:59.959Z,11.85
2023-11-18T00:42:05.048Z,12.75
2023-11-18T00:47:08.349Z,11.82
2023-11-18T00:52:11.269Z,11.07
2023-11-18T00:57:14.170Z,11.75
2023-11-18T01:02:18.228Z,11.80
2023-11-18T01:07:21.093Z,12.95
2023-11-18T01:12:23.910Z,10.77
2023-11-18T01:17:26.757Z,12.57
2023-11-18T01:22:30.904Z,11.77
2023-11-18T01:27:35.427Z,13.32
2023-11-18T01:32:38.540Z,17.23
2023-11-18T01:37:41.523Z,10.52
2023-11-18T01:42:48.097Z,11.45
2023-11-18T01:47:51.326Z,11.20
2023-11-18T01:52:54.685Z,11.20
2023-11-18T01:58:00.099Z,11.70
2023-11-18T02:03:04.030Z,9.95
2023-11-18T02:08:08.645Z,10.77
2023-11-18T02:13:17.033Z,9.73
2023-11-18T02:18:20.808Z,9.10
2023-11-18T02:23:43.844Z,9.05
2023-11-18T02:28:47.098Z,12.25
2023-11-18T02:34:17.237Z,11.15
2023-11-18T02:39:40.167Z,7.93
2023-11-18T02:44:44.534Z,10.38
2023-11-18T02:49:50.211Z,8.93
2023-11-18T02:54:53.197Z,8.73
2023-11-18T02:59:56.066Z,9.63
2023-11-18T03:04:59.541Z,10.68
2023-11-18T03:10:03.143Z,11.63
2023-11-18T03:15:08.086Z,10.23
2023-11-18T03:20:13.598Z,11.18
2023-11-18T03:25:16.950Z,10.45
2023-11-18T03:30:20.123Z,10.00
2023-11-18T03:35:25.769Z,10.60
2023-11-18T03:40:30.500Z,9.73
2023-11-18T03:45:33.693Z,12.27
2023-11-18T03:50:36.593Z,11.38
2023-11-18T03:55:39.714Z,12.25
2023-11-18T04:00:43.460Z,9.82
2023-11-18T04:05:46.279Z,6.28
2023-11-18T04:10:49.096Z,7.57
2023-11-18T04:15:52.301Z,7.32
2023-11-18T04:20:55.048Z,5.88
2023-11-18T04:25:57.937Z,6.90
2023-11-18T04:31:02.187Z,7.85
2023-11-18T04:36:07.016Z,6.43
2023-11-18T04:41:09.952Z,8.73
2023-11-18T04:46:13.991Z,8.07
2023-11-18T04:51:19.003Z,7.53
2023-11-18T04:56:23.255Z,13.23
2023-11-18T05:01:26.076Z,7.75
2023-11-18T05:06:29.117Z,11.50
2023-11-18T05:11:32.019Z,7.00
2023-11-18T05:16:34.892Z,8.77
2023-11-18T05:21:37.934Z,9.48
2023-11-18T05:26:42.147Z,12.68
2023-11-18T05:31:45.304Z,9.60
2023-11-18T05:36:50.084Z,13.05
2023-11-18T05:41:52.918Z,12.10
2023-11-18T05:46:55.698Z,11.30
2023-11-18T05:51:59.392Z,9.57
2023-11-18T05:57:02.263Z,12.45
2023-11-18T06:02:05.413Z,11.60
2023-11-18T06:07:08.339Z,14.05
2023-11-18T06:12:12.733Z,11.02
2023-11-18T06:17:15.739Z,12.18
2023-11-18T06:22:18.798Z,10.02
2023-11-18T06:27:25.406Z,12.77
2023-11-18T06:32:28.285Z,12.05
2023-11-18T06:37:34.527Z,10.20
2023-11-18T06:42:40.604Z,12.32
2023-11-18T06:47:47.127Z,16.92
2023-11-18T06:52:50.207Z,18.70
2023-11-18T06:57:53.507Z,18.83
2023-11-18T07:02:56.943Z,26.58
2023-11-18T07:07:59.806Z,13.45
2023-11-18T07:13:02.593Z,17.70
2023-11-18T07:18:05.487Z,14.68
2023-11-18T07:23:10.128Z,13.82
2023-11-18T07:33:16.288Z,11.73
2023-11-18T07:38:22.266Z,10.70
2023-11-18T07:43:25.109Z,11.77
2023-11-18T07:48:29.274Z,11.88
2023-11-18T07:53:31.948Z,12.43
2023-11-18T07:58:38.856Z,13.25
2023-11-18T08:03:45.376Z,14.88
2023-11-18T08:08:49.679Z,17.38
2023-11-18T08:13:52.982Z,13.10
2023-11-18T08:18:57.782Z,15.45
2023-11-18T08:24:01.688Z,22.38
2023-11-18T08:29:05.205Z,12.43
2023-11-18T08:34:08.062Z,12.85
2023-11-18T08:39:12.623Z,11.30
2023-11-18T08:44:23.777Z,11.80
2023-11-18T08:49:27.524Z,18.63
2023-11-18T08:54:39.447Z,11.38
2023-11-18T08:59:43.050Z,13.15
2023-11-18T09:04:45.888Z,11.48
2023-11-18T09:09:51.056Z,8.10
2023-11-18T09:14:55.592Z,12.20
2023-11-18T09:19:58.353Z,9.50
2023-11-18T09:25:02.643Z,8.93
2023-11-18T09:30:15.269Z,9.60
2023-11-18T09:35:18.935Z,9.98
2023-11-18T09:40:26.363Z,13.30
2023-11-18T09:45:30.329Z,11.32
2023-11-18T09:50:33.976Z,13.00
2023-11-18T09:55:51.471Z,12.35
2023-11-18T10:00:57.593Z,11.68
2023-11-18T10:06:06.450Z,23.67
2023-11-18T10:11:10.960Z,12.45
2023-11-18T10:16:13.748Z,11.25
2023-11-18T10:21:19.827Z,11.25
2023-11-18T10:26:26.586Z,11.23
2023-11-18T10:31:30.189Z,10.75
2023-11-18T10:36:34.828Z,13.15
2023-11-18T10:41:44.059Z,12.27
2023-11-18T10:46:56.275Z,7.93
2023-11-18T10:52:00.451Z,10.98
2023-11-18T10:57:09.439Z,12.27
2023-11-18T11:02:25.484Z,20.42
2023-11-18T11:07:30.321Z,10.20
2023-11-18T11:12:35.218Z,12.73
2023-11-18T11:17:41.544Z,11.70
2023-11-18T11:22:54.503Z,11.85
2023-11-18T11:28:21.293Z,15.02
2023-11-18T11:33:24.112Z,13.73
2023-11-18T11:38:28.427Z,11.98
2023-11-18T11:43:31.637Z,11.73
2023-11-18T11:48:37.756Z,6.55
2023-11-18T11:53:46.960Z,9.60
2023-11-18T11:58:55.290Z,12.10
2023-11-18T12:03:59.543Z,8.35
2023-11-18T12:09:07.501Z,14.25
2023-11-18T12:14:36.943Z,12.68
2023-11-18T12:19:48.654Z,12.05
2023-11-18T12:25:00.704Z,10.20
2023-11-18T12:30:06.482Z,18.83
2023-11-18T12:35:18.671Z,14.23
2023-11-18T12:40:48.156Z,19.02
2023-11-18T12:46:08.788Z,15.73
2023-11-18T12:51:20.855Z,17.23
2023-11-18T12:56:27.580Z,13.30
2023-11-18T13:01:34.328Z,18.02
2023-11-18T13:06:37.534Z,15.15
2023-11-18T13:11:44.057Z,14.00
2023-11-18T13:16:48.250Z,16.50
2023-11-18T13:21:51.158Z,15.85
2023-11-18T13:26:56.350Z,16.02
2023-11-18T13:32:01.898Z,14.88
2023-11-18T13:37:08.593Z,13.57
2023-11-18T13:42:24.801Z,14.00
2023-11-18T13:47:30.589Z,12.45
2023-11-18T13:52:33.479Z,15.20
2023-11-18T13:57:36.450Z,13.52
2023-11-18T14:02:39.279Z,12.73
2023-11-18T14:07:42.261Z,13.70
2023-11-18T14:13:02.049Z,16.75
2023-11-18T14:18:05.489Z,13.15
2023-11-18T14:23:10.366Z,13.65
2023-11-18T14:33:17.081Z,16.95
2023-11-18T14:38:20.204Z,16.08
2023-11-18T14:43:23.188Z,17.27
2023-11-18T14:48:25.960Z,19.63
2023-11-18T14:53:28.997Z,19.38
2023-11-18T14:58:31.886Z,21.80
2023-11-18T15:03:38.159Z,21.52
2023-11-18T15:08:46.547Z,20.13
2023-11-18T15:13:49.793Z,18.13
2023-11-18T15:18:54.179Z,15.00
2023-11-18T15:24:06.399Z,13.82
2023-11-18T15:29:16.328Z,18.08
2023-11-18T15:34:20.818Z,18.73
2023-11-18T15:39:25.096Z,17.05
2023-11-18T15:44:30.037Z,15.90
2023-11-18T15:49:32.871Z,18.70
2023-11-18T15:54:35.919Z,19.67
2023-11-18T15:59:39.847Z,16.63
2023-11-18T16:04:42.663Z,15.80
2023-11-18T16:09:45.701Z,15.88
2023-11-18T16:14:48.967Z,14.23
2023-11-18T16:19:52.021Z,11.40
2023-11-18T16:24:54.958Z,9.55
2023-11-18T16:29:57.992Z,10.02
2023-11-18T16:35:00.910Z,9.25
2023-11-18T16:40:06.352Z,9.43
2023-11-18T16:45:10.617Z,9.07
2023-11-18T16:50:14.225Z,10.60
2023-11-18T16:55:17.560Z,10.88
2023-11-18T17:00:24.547Z,9.00
2023-11-18T17:05:33.086Z,10.93
2023-11-18T17:10:36.717Z,7.30
2023-11-18T17:15:40.318Z,8.30
2023-11-18T17:20:43.677Z,10.63
2023-11-18T17:25:46.537Z,11.55
2023-11-18T17:30:49.573Z,8.73
2023-11-18T17:35:52.442Z,7.40
2023-11-18T17:40:55.532Z,9.77
2023-11-18T17:45:58.543Z,8.38
2023-11-18T17:51:01.656Z,9.95
2023-11-18T17:56:07.166Z,9.20
2023-11-18T18:01:10.495Z,12.05
2023-11-18T18:06:14.449Z,11.52
2023-11-18T18:11:18.489Z,9.30
2023-11-18T18:16:21.540Z,9.02
2023-11-18T18:21:24.601Z,10.77
2023-11-18T18:26:27.565Z,10.25
2023-11-18T18:31:30.574Z,10.45
2023-11-18T18:36:34.587Z,12.18
2023-11-18T18:41:37.754Z,9.48
2023-11-18T18:46:41.039Z,9.27
2023-11-18T18:51:43.998Z,11.07
2023-11-18T18:56:47.065Z,10.43
2023-11-18T19:01:51.535Z,9.65
2023-11-18T19:06:56.555Z,10.88
2023-11-18T19:17:06.236Z,8.93
2023-11-18T19:22:09.976Z,11.85
2023-11-18T19:27:16.607Z,10.20
2023-11-18T19:32:19.958Z,8.23
2023-11-18T19:37:22.967Z,10.48
2023-11-18T19:42:25.836Z,8.30
2023-11-18T19:47:30.926Z,10.57
2023-11-18T19:52:34.187Z,10.15
2023-11-18T19:57:37.440Z,10.68
2023-11-18T20:02:42.778Z,10.38
2023-11-18T20:07:45.703Z,9.55
2023-11-18T20:12:48.684Z,9.07
2023-11-18T20:17:52.803Z,9.20
2023-11-18T20:22:56.188Z,11.93
2023-11-18T20:27:59.148Z,9.07
2023-11-18T20:33:02.334Z,9.80
2023-11-18T20:38:05.289Z,8.32
2023-11-18T20:43:09.464Z,9.98
2023-11-18T20:48:12.271Z,8.77
2023-11-18T20:53:15.037Z,9.25
2023-11-18T20:58:18.021Z,10.07
2023-11-18T21:03:21.405Z,11.15
2023-11-18T21:08:25.245Z,9.57
2023-11-18T21:13:29.385Z,10.68
2023-11-18T21:18:32.480Z,10.02
2023-11-18T21:23:35.311Z,12.48
2023-11-18T21:28:39.458Z,10.35
2023-11-18T21:33:43.123Z,10.63
2023-11-18T21:38:53.462Z,9.43
2023-11-18T21:49:02.556Z,10.48
2023-11-18T21:54:05.863Z,9.90
2023-11-18T21:59:09.072Z,9.02
2023-11-18T22:04:12.350Z,9.73
2023-11-18T22:09:17.571Z,10.10
2023-11-18T22:14:20.491Z,10.45
2023-11-18T22:19:24.234Z,9.55
2023-11-18T22:24:27.155Z,12.45
2023-11-18T22:29:30.545Z,10.48
2023-11-18T22:34:36.652Z,11.68
2023-11-18T22:39:39.679Z,11.93
2023-11-18T22:44:46.832Z,16.27
2023-11-18T22:49:50.319Z,12.60
2023-11-18T22:54:53.310Z,8.98
2023-11-18T22:59:56.392Z,9.93
2023-11-18T23:05:02.950Z,10.70
2023-11-18T23:10:08.709Z,9.32
2023-11-18T23:15:12.081Z,11.57
2023-11-18T23:20:14.871Z,11.00
2023-11-18T23:25:18.059Z,18.40
2023-11-18T23:30:22.505Z,17.48
2023-11-18T23:35:25.481Z,13.77
2023-11-18T23:40:28.915Z,13.65
2023-11-18T23:45:32.433Z,15.80
2023-11-18T23:50:37.213Z,10.85
2023-11-18T23:55:40.165Z,10.80
